Condiciones actuales en los principales Aeropuertos de España-Datos Metar

 

LEAL - Alicante
Actualización: 28/05/2017 22:30
Despejado
Despejado
 Viento del NE
Viento: NE 15 km/h
Temperatura: 23°C
Rocío: 12°C
Humedad: 50%
Barómetro: 1017 hPa
Resumen: Despejado
Visibilidad: greater than 10 km
2017/05/28 20:30 LEAL 282030Z 05008KT 020V080 CAVOK 23/12 Q1017 NOSIG
LEAB - Albacete
Actualización: 28/05/2017 22:00
Despejado
Despejado
 Viento del SSE
Viento: SSE 15 km/h
Temperatura: 20°C
Rocío: 4°C
Humedad: 35%
Barómetro: 1019 hPa
Resumen: Despejado
Visibilidad: greater than 10 km
2017/05/28 20:00 LEAB 282000Z 15008KT CAVOK 20/04 Q1019 NOSIG
LEAM - Almería
Actualización: 28/05/2017 22:30
Despejado
Despejado
 Viento del SO
Viento: SO 11 km/h
Temperatura: 21°C
Rocío: 17°C
Humedad: 78%
Barómetro: 1017 hPa
Resumen: Despejado
Visibilidad: greater than 10 km
2017/05/28 20:30 LEAM 282030Z 23006KT 190V260 CAVOK 21/17 Q1017
 
LEAS - Asturias/Aviles
Actualización: 28/05/2017 22:30
Patches of fog, Muy nuboso
Patches of fog, Muy nuboso
 Viento del varies
Viento: varies 2 km/h
Temperatura: 15°C
Rocío: 15°C
Humedad: 100%
Barómetro: 1016 hPa
Resumen: Patches of Fog
Nubosidad: Mostly Cloudy
Visibilidad: 9 km
Cloud details: Partly Cloudy 122 m
Mostly Cloudy 610 m
2017/05/28 20:30 LEAS 282030Z VRB01KT 9000 3000S BCFG SCT004 BKN020 15/15 Q1016 TEMPO 1500 BCFG BKN002
LEBZ - Badajoz/Talavera la Real
Actualización: 28/05/2017 21:00
NO Actualizado
Despejado
Despejado
 Viento del OSO
Viento: OSO 19 km/h
Temperatura: 26°C
Rocío: 10°C
Humedad: 37%
Barómetro: 1015 hPa
Resumen: Despejado
Visibilidad: greater than 10 km
2017/05/28 19:00 LEBZ 281900Z 25010KT CAVOK 26/10 Q1015
LEBL - Barcelona
Actualización: 28/05/2017 22:30
Despejado
Despejado
 Viento del ENE
Viento: ENE 4 km/h
Temperatura: 21°C
Rocío: 16°C
Humedad: 73%
Barómetro: 1018 hPa
Resumen: Despejado
Visibilidad: greater than 10 km
2017/05/28 20:30 LEBL 282030Z 06002KT CAVOK 21/16 Q1018 NOSIG
 
LEBB - Bilbao
Actualización: 28/05/2017 22:30
Mostly Cloudy
Mostly Cloudy
 Viento del NNO
Viento: NNO 15 km/h
Temperatura: 17°C
Rocío: 16°C
Humedad: 94%
Barómetro: 1016 hPa
Nubosidad: Mostly Cloudy
Visibilidad: 8 km
Cloud details: Partly Cloudy 122 m
Mostly Cloudy 274 m
2017/05/28 20:30 LEBB 282030Z 33008KT 300V360 8000 SCT004 BKN009 17/16 Q1016 TEMPO 1500 SHRA BKN008 SCT025TCU
LEBG - Burgos/Villafría
Actualización: 28/05/2017 22:30
Lluvia débil, Showers, Thunderstorm
Lluvia débil, Showers, Thunderstorm
 Viento del varies
Viento: varies 4 km/h
Temperatura: 15°C
Rocío: 14°C
Humedad: 94%
Barómetro: 1018 hPa
Resumen: Lluvia débil, Showers
Nubosidad: Thunderstorm
Visibilidad: 10 km
2017/05/28 20:30 LEBG 282030Z AUTO VRB02KT 9999 -SHRA ///TCU 15/14 Q1018
LEBA - Córdoba
Actualización: 28/05/2017 22:30
Despejado
Despejado
 Viento del OSO
Viento: OSO 11 km/h
Temperatura: 22°C
Rocío: 14°C
Humedad: 61%
Barómetro: 1016 hPa
Resumen: Despejado
Visibilidad: greater than 10 km
2017/05/28 20:30 LEBA 282030Z AUTO 24006KT 210V270 CAVOK 22/14 Q1016
 
LEGE - Gerona
Actualización: 28/05/2017 22:30
Despejado
Despejado
 Viento del SO
Viento: SO 4 km/h
Temperatura: 18°C
Rocío: 10°C
Humedad: 60%
Barómetro: 1019 hPa
Resumen: Despejado
Visibilidad: greater than 10 km
2017/05/28 20:30 LEGE 282030Z 22002KT CAVOK 18/10 Q1019
LEGR - Granada
Actualización: 28/05/2017 22:30
Despejado
Despejado
 Viento del O
Viento: O 6 km/h
Temperatura: 23°C
Rocío: 14°C
Humedad: 57%
Barómetro: 1018 hPa
Resumen: Despejado
Visibilidad: greater than 10 km
2017/05/28 20:30 LEGR 282030Z 27003KT 250V320 CAVOK 23/14 Q1018
GCHI - Hierro
Actualización: 28/05/2017 22:30
Few Clouds
Few Clouds
 Viento del N
Viento: N 20 km/h
Temperatura: 24°C
Rocío: 19°C
Humedad: 74%
Barómetro: 1021 hPa
Nubosidad: Few Clouds
Visibilidad: 10 km
Cloud details: Few Clouds 518 m
2017/05/28 20:30 GCHI 282030Z AUTO 35011KT 9999 FEW017/// 24/19 Q1021
 
LEIB - Ibiza
Actualización: 28/05/2017 22:30
Despejado
Despejado
 Viento del ENE
Viento: ENE 19 km/h
Temperatura: 21°C
Rocío: 15°C
Humedad: 69%
Barómetro: 1017 hPa
Resumen: Despejado
Visibilidad: greater than 10 km
2017/05/28 20:30 LEIB 282030Z 06010KT CAVOK 21/15 Q1017 NOSIG
LEJR - Jerez de la Frontera
Actualización: 28/05/2017 22:30
Despejado
Despejado
 Viento del SO
Viento: SO 15 km/h
Temperatura: 21°C
Rocío: 16°C
Humedad: 73%
Barómetro: 1018 hPa
Resumen: Despejado
Visibilidad: greater than 10 km
2017/05/28 20:30 LEJR 282030Z 23008KT CAVOK 21/16 Q1018
LECO - A Coruña
Actualización: 28/05/2017 22:30
Partly Cloudy
Partly Cloudy
 Viento del varies
Viento: varies 4 km/h
Temperatura: 16°C
Rocío: 15°C
Humedad: 94%
Barómetro: 1016 hPa
Nubosidad: Partly Cloudy
Visibilidad: 10 km
Cloud details: Partly Cloudy 914 m
2017/05/28 20:30 LECO 282030Z VRB02KT 9999 SCT030 16/15 Q1016 TEMPO SHRA SCT030TCU
 
GCLA - La Palma
Actualización: 28/05/2017 22:30
Few Clouds
Few Clouds
 Viento del NNE
Viento: NNE 17 km/h
Temperatura: 23°C
Rocío: 18°C
Humedad: 74%
Barómetro: 1021 hPa
Nubosidad: Few Clouds
Visibilidad: 10 km
Cloud details: Few Clouds 914 m
2017/05/28 20:30 GCLA 282030Z 03009KT 360V080 9999 FEW030 23/18 Q1021
GCRR - Lanzarote
Actualización: 28/05/2017 22:30
Few Clouds
Few Clouds
 Viento del NNO
Viento: NNO 7 km/h
Temperatura: 22°C
Rocío: 17°C
Humedad: 73%
Barómetro: 1020 hPa
Nubosidad: Few Clouds
Visibilidad: 10 km
Cloud details: Few Clouds 762 m
2017/05/28 20:30 GCRR 282030Z 34004KT 300V020 9999 FEW025 22/17 Q1020
GCLP - Las Palmas
Actualización: 28/05/2017 22:30
Few Clouds
Few Clouds
 Viento del N
Viento: N 26 km/h
Temperatura: 23°C
Rocío: 16°C
Humedad: 65%
Barómetro: 1020 hPa
Nubosidad: Few Clouds
Visibilidad: 10 km
Cloud details: Few Clouds 1067 m
2017/05/28 20:30 GCLP 282030Z 36014KT 9999 FEW035 23/16 Q1020 NOSIG
 
LELN - León
Actualización: 28/05/2017 22:00
Lluvia débil, Poco nuboso
Lluvia débil, Poco nuboso
 Viento del calm
Viento: Calma
Temperatura: 17°C
Rocío: 12°C
Humedad: 73%
Barómetro: 1016 hPa
Resumen: Light Rain
Nubosidad: Few Clouds
Visibilidad: 10 km
Cloud details: Few Clouds 1219 m
2017/05/28 20:00 LELN 282000Z 00000KT 9999 -RA FEW040 17/12 Q1016
LELO - Logroño
Actualización: 28/05/2017 22:00
Despejado
Despejado
 Viento del ENE
Viento: ENE 17 km/h
Temperatura: 26°C
Rocío: 12°C
Humedad: 42%
Barómetro: 1014 hPa
Resumen: Despejado
Visibilidad: greater than 10 km
2017/05/28 20:00 LELO 282000Z 07009KT 030V110 CAVOK 26/12 Q1014
LECV - Madrid/Colmenar
Actualización: 28/05/2017 20:00
NO Actualizado
Partly Cloudy
Partly Cloudy
 Viento del N
Viento: N 7 km/h
Temperatura: 22°C
Rocío: 6°C
Humedad: 36%
Barómetro: 1017 hPa
Nubosidad: Partly Cloudy
Visibilidad: 10 km
Cloud details: Few Clouds 1219 m
Partly Cloudy 1829 m
2017/05/28 18:00 LECV 281800Z 35004KT 9999 FEW040TCU SCT060 22/06 Q1017
 
LEMD - Madrid/Barajas
Actualización: 28/05/2017 22:30
Despejado
Despejado
 Viento del OSO
Viento: OSO 20 km/h
Temperatura: 25°C
Rocío: 12°C
Humedad: 44%
Barómetro: 1016 hPa
Resumen: Despejado
Visibilidad: greater than 10 km
2017/05/28 20:30 LEMD 282030Z 24011KT 210V280 CAVOK 25/12 Q1016 NOSIG
LEVS - Madrid/Cuatro Vientos
Actualización: 28/05/2017 22:00
Few Clouds
Few Clouds
 Viento del OSO
Viento: OSO 17 km/h
Temperatura: 21°C
Rocío: 13°C
Humedad: 60%
Barómetro: 1016 hPa
Nubosidad: Few Clouds
Visibilidad: 10 km
Cloud details: Few Clouds 1524 m
2017/05/28 20:00 LEVS 282000Z 25009KT 9999 FEW050 21/13 Q1016
LEGT - Madrid/Getafe
Actualización: 28/05/2017 22:00
Few Clouds
Few Clouds
 Viento del O
Viento: O 13 km/h
Temperatura: 23°C
Rocío: 13°C
Humedad: 53%
Barómetro: 1016 hPa
Nubosidad: Few Clouds
Visibilidad: 10 km
Cloud details: Few Clouds 1372 m
2017/05/28 20:00 LEGT 282000Z 27007KT 9999 FEW045 23/13 Q1016
 
LETO - Madrid/Torrejón
Actualización: 28/05/2017 22:25
Despejado
Despejado
 Viento del SO
Viento: SO 15 km/h
Temperatura: 24°C
Rocío: 12°C
Humedad: 47%
Barómetro: 1016 hPa
Resumen: Despejado
Visibilidad: greater than 10 km
2017/05/28 20:25 LETO 282025Z 22008KT 190V260 CAVOK 24/12 Q1016 NOSIG
LEMG - Málaga
Actualización: 28/05/2017 22:30
Despejado
Despejado
 Viento del S
Viento: S 9 km/h
Temperatura: 22°C
Rocío: 15°C
Humedad: 65%
Barómetro: 1017 hPa
Resumen: Despejado
Visibilidad: greater than 10 km
2017/05/28 20:30 LEMG 282030Z 17005KT 140V200 CAVOK 22/15 Q1017 NOSIG
GEML - Melilla
Actualización: 28/05/2017 22:30
Despejado
Despejado
 Viento del varies
Viento: varies 4 km/h
Temperatura: 22°C
Rocío: 17°C
Humedad: 73%
Barómetro: 1018 hPa
Resumen: Despejado
Visibilidad: greater than 10 km
2017/05/28 20:30 GEML 282030Z AUTO VRB02KT CAVOK 22/17 Q1018
 
LEMH - Mahón
Actualización: 28/05/2017 22:30
Few Clouds
Few Clouds
 Viento del E
Viento: E 11 km/h
Temperatura: 20°C
Rocío: 18°C
Humedad: 88%
Barómetro: 1019 hPa
Nubosidad: Few Clouds
Visibilidad: 10 km
Cloud details: Few Clouds 457 m
2017/05/28 20:30 LEMH 282030Z 08006KT 9999 FEW015 20/18 Q1019
LEMO - Morón de La Frontera
Actualización: 28/05/2017 22:00
Despejado
Despejado
 Viento del OSO
Viento: OSO 19 km/h
Temperatura: 20°C
Rocío: 14°C
Humedad: 69%
Barómetro: 1017 hPa
Resumen: Despejado
Visibilidad: greater than 10 km
2017/05/28 20:00 LEMO 282000Z 25010KT 220V280 CAVOK 20/14 Q1017 NOSIG
LERI - Murcia/Alcantarilla
Actualización: 28/05/2017 20:00
NO Actualizado
Despejado
Despejado
 Viento del E
Viento: E 22 km/h
Temperatura: 24°C
Rocío: 12°C
Humedad: 47%
Barómetro: 1016 hPa
Resumen: Despejado
Visibilidad: greater than 10 km
2017/05/28 18:00 LERI 281800Z 09012KT CAVOK 24/12 Q1016 NOSIG
 
LELC - Murcia/San Javier
Actualización: 28/05/2017 22:00
Despejado
Despejado
 Viento del NE
Viento: NE 22 km/h
Temperatura: 22°C
Rocío: 16°C
Humedad: 69%
Barómetro: 1016 hPa
Resumen: Despejado
Visibilidad: greater than 10 km
2017/05/28 20:00 LELC 282000Z 04012KT 010V070 CAVOK 22/16 Q1016 NOSIG
LEPA - Palma de Mallorca
Actualización: 28/05/2017 22:30
Despejado
Despejado
 Viento del ENE
Viento: ENE 11 km/h
Temperatura: 20°C
Rocío: 13°C
Humedad: 64%
Barómetro: 1018 hPa
Resumen: Despejado
Visibilidad: greater than 10 km
2017/05/28 20:30 LEPA 282030Z 07006KT CAVOK 20/13 Q1018 NOSIG
LEPP - Pamplona
Actualización: 28/05/2017 22:30
Despejado
Despejado
 Viento del SE
Viento: SE 11 km/h
Temperatura: 25°C
Rocío: 11°C
Humedad: 42%
Barómetro: 1015 hPa
Resumen: Despejado
Visibilidad: greater than 10 km
2017/05/28 20:30 LEPP 282030Z 13006KT 110V170 CAVOK 25/11 Q1015
 
LERS - Reus
Actualización: 28/05/2017 22:30
Despejado
Despejado
 Viento del varies
Viento: varies 2 km/h
Temperatura: 19°C
Rocío: 14°C
Humedad: 73%
Barómetro: 1018 hPa
Resumen: Despejado
Visibilidad: greater than 10 km
2017/05/28 20:30 LERS 282030Z VRB01KT CAVOK 19/14 Q1018
LERT - Rota
Actualización: 28/05/2017 22:00
Partly Cloudy
Partly Cloudy
 Viento del SO
Viento: SO 15 km/h
Temperatura: 20°C
Rocío: 17°C
Humedad: 83%
Barómetro: 1017 hPa
Nubosidad: Partly Cloudy
Visibilidad: 10 km
Cloud details: Partly Cloudy 518 m
2017/05/28 20:00 LERT 282000Z 23008KT 9999 SCT017 20/17 Q1017 NOSIG
LELL - Sabadell
Actualización: 28/05/2017 22:30
Despejado
Despejado
 Viento del varies
Viento: varies 2 km/h
Temperatura: 20°C
Rocío: 13°C
Humedad: 64%
Barómetro: 1019 hPa
Nubosidad: Despejado
Visibilidad: 10 km
2017/05/28 20:30 LELL 282030Z AUTO VRB01KT 9999 NCD 20/13 Q1019
 
LESA - Salamanca
Actualización: 28/05/2017 20:00
NO Actualizado
Few Clouds
Few Clouds
 Viento del OSO
Viento: OSO 19 km/h
Temperatura: 20°C
Rocío: 12°C
Humedad: 60%
Barómetro: 1016 hPa
Nubosidad: Few Clouds
Visibilidad: 10 km
Cloud details: Few Clouds 853 m
2017/05/28 18:00 LESA 281800Z 25010KT 9999 FEW028 20/12 Q1016
LESO - San Sebastián
Actualización: 28/05/2017 22:30
Cubierto
Cubierto
 Viento del varies
Viento: varies 4 km/h
Temperatura: 19°C
Rocío: 17°C
Humedad: 88%
Barómetro: 1014 hPa
Nubosidad: Cubierto
Visibilidad: 9 km
Cloud details: Cubierto 30 m
2017/05/28 20:30 LESO 282030Z AUTO VRB02KT 9000 VV001 19/17 Q1014
LEXJ - Santander
Actualización: 28/05/2017 22:30
Mostly Cloudy
Mostly Cloudy
 Viento del O
Viento: O 7 km/h
Temperatura: 16°C
Rocío: 15°C
Humedad: 94%
Barómetro: 1016 hPa
Nubosidad: Mostly Cloudy
Visibilidad: 10 km
Cloud details: Mostly Cloudy 244 m
Mostly Cloudy 762 m
2017/05/28 20:30 LEXJ 282030Z 26004KT 220V300 9999 BKN008 BKN025 16/15 Q1016
 
LEPA - Palma de Mallorca
Actualización: 28/05/2017 22:30
Despejado
Despejado
 Viento del ENE
Viento: ENE 11 km/h
Temperatura: 20°C
Rocío: 13°C
Humedad: 64%
Barómetro: 1018 hPa
Resumen: Despejado
Visibilidad: greater than 10 km
2017/05/28 20:30 LEPA 282030Z 07006KT CAVOK 20/13 Q1018 NOSIG
LEPP - Pamplona
Actualización: 28/05/2017 22:30
Despejado
Despejado
 Viento del SE
Viento: SE 11 km/h
Temperatura: 25°C
Rocío: 11°C
Humedad: 42%
Barómetro: 1015 hPa
Resumen: Despejado
Visibilidad: greater than 10 km
2017/05/28 20:30 LEPP 282030Z 13006KT 110V170 CAVOK 25/11 Q1015
LEST - Santiago de Compostela
Actualización: 28/05/2017 22:30
Lluvia débil, Muy nuboso
Lluvia débil, Muy nuboso
 Viento del varies
Viento: varies 4 km/h
Temperatura: 15°C
Rocío: 14°C
Humedad: 94%
Barómetro: 1016 hPa
Resumen: Light Rain
Nubosidad: Mostly Cloudy
Visibilidad: 10 km
Cloud details: Partly Cloudy 183 m
Mostly Cloudy 457 m
2017/05/28 20:30 LEST 282030Z VRB02KT 9999 -RA SCT006 BKN015 15/14 Q1016 TEMPO 0800 BCFG BKN005
 
LEZL - Sevilla
Actualización: 28/05/2017 22:30
Despejado
Despejado
 Viento del SO
Viento: SO 20 km/h
Temperatura: 21°C
Rocío: 14°C
Humedad: 64%
Barómetro: 1017 hPa
Resumen: Despejado
Visibilidad: greater than 10 km
2017/05/28 20:30 LEZL 282030Z 23011KT CAVOK 21/14 Q1017 NOSIG
GCXO - Tenerife
Actualización: 28/05/2017 22:30
Partly Cloudy
Partly Cloudy
 Viento del NO
Viento: NO 17 km/h
Temperatura: 17°C
Rocío: 15°C
Humedad: 88%
Barómetro: 1023 hPa
Nubosidad: Partly Cloudy
Visibilidad: 10 km
Cloud details: Few Clouds 152 m
Partly Cloudy 427 m
2017/05/28 20:30 GCXO 282030Z 31009KT 9999 FEW005 SCT014 17/15 Q1023 NOSIG
GCTS - Tenerife-Sur
Actualización: 28/05/2017 22:30
Mostly Cloudy
Mostly Cloudy
 Viento del SE
Viento: SE 6 km/h
Temperatura: 22°C
Rocío: 17°C
Humedad: 73%
Barómetro: 1021 hPa
Nubosidad: Mostly Cloudy
Visibilidad: 10 km
Cloud details: Few Clouds 762 m
Mostly Cloudy 1097 m
2017/05/28 20:30 GCTS 282030Z 13003KT 100V160 9999 FEW025 BKN036 22/17 Q1021 NOSIG
 
LEVC - Valencia
Actualización: 28/05/2017 22:30
Few Clouds
Few Clouds
 Viento del E
Viento: E 6 km/h
Temperatura: 23°C
Rocío: 14°C
Humedad: 57%
Barómetro: 1018 hPa
Nubosidad: Few Clouds
Visibilidad: 10 km
Cloud details: Few Clouds 1219 m
2017/05/28 20:30 LEVC 282030Z 08003KT 060V120 9999 FEW040 23/14 Q1018 NOSIG
LEVD - Valladolid
Actualización: 28/05/2017 21:30
Despejado
Despejado
 Viento del SSO
Viento: SSO 7 km/h
Temperatura: 19°C
Rocío: 13°C
Humedad: 68%
Barómetro: 1016 hPa
Resumen: Despejado
Visibilidad: greater than 10 km
2017/05/28 19:30 LEVD 281930Z 20004KT 170V230 CAVOK 19/13 Q1016
LEVX - Vigo
Actualización: 28/05/2017 22:30
Lluvia débil, Muy nuboso
Lluvia débil, Muy nuboso
 Viento del varies
Viento: varies 2 km/h
Temperatura: 15°C
Rocío: 15°C
Humedad: 100%
Barómetro: 1016 hPa
Resumen: Light Rain
Nubosidad: Mostly Cloudy
Visibilidad: 9 km
Cloud details: Few Clouds 91 m
Mostly Cloudy 366 m
2017/05/28 20:30 LEVX 282030Z VRB01KT 9000 -RA FEW003 BKN012 15/15 Q1016 TEMPO 0800 BCFG BKN002
 
LEVT - Vitoria
Actualización: 28/05/2017 22:30
Partly Cloudy
Partly Cloudy
 Viento del NNO
Viento: NNO 4 km/h
Temperatura: 22°C
Rocío: 14°C
Humedad: 61%
Barómetro: 1015 hPa
Nubosidad: Partly Cloudy
Visibilidad: 10 km
Cloud details: Few Clouds 1067 m
Partly Cloudy 2286 m
2017/05/28 20:30 LEVT 282030Z 34002KT 9999 FEW035 SCT075 22/14 Q1015
LEZG - Zaragoza
Actualización: 28/05/2017 22:30
Few Clouds
Few Clouds
 Viento del ESE
Viento: ESE 31 km/h
Temperatura: 25°C
Rocío: 10°C
Humedad: 39%
Barómetro: 1015 hPa
Nubosidad: Few Clouds
Visibilidad: 10 km
Cloud details: Few Clouds 1524 m
2017/05/28 20:30 LEZG 282030Z 11017KT 080V140 9999 FEW050 25/10 Q1015

La estación de MeteoMurcia.com, publica sus datos en los siguientes proyectos:

Meteoclimatic www.awekas.at

W3Counter
Web Analytics